createdAt,value
2023-02-08T00:00:59.004Z,28.08
2023-02-08T00:02:30.534Z,29.99
2023-02-08T00:04:02.025Z,30.67
2023-02-08T00:05:38.394Z,31.68
2023-02-08T00:07:09.799Z,28.87
2023-02-08T00:08:41.179Z,30.20
2023-02-08T00:10:12.629Z,29.46
2023-02-08T00:11:44.082Z,29.98
2023-02-08T00:13:15.934Z,30.17
2023-02-08T00:14:47.594Z,28.36
2023-02-08T00:16:19.096Z,27.07
2023-02-08T00:17:50.489Z,28.88
2023-02-08T00:19:21.892Z,29.16
2023-02-08T00:20:53.578Z,29.05
2023-02-08T00:22:25.289Z,29.39
2023-02-08T00:23:56.754Z,30.63
2023-02-08T00:25:28.334Z,34.40
2023-02-08T00:26:59.612Z,31.38
2023-02-08T00:28:30.943Z,31.46
2023-02-08T00:30:02.430Z,29.97
2023-02-08T00:31:34.170Z,28.70
2023-02-08T00:33:05.775Z,29.00
2023-02-08T00:34:37.538Z,28.43
2023-02-08T00:36:09.478Z,27.38
2023-02-08T00:37:40.855Z,27.92
2023-02-08T00:39:12.230Z,27.61
2023-02-08T00:40:43.711Z,28.30
2023-02-08T00:42:15.124Z,28.67
2023-02-08T00:43:51.436Z,27.71
2023-02-08T00:45:22.702Z,26.84
2023-02-08T00:46:54.134Z,26.83
2023-02-08T00:48:25.774Z,28.12
2023-02-08T00:49:58.098Z,28.23
2023-02-08T00:51:29.359Z,26.91
2023-02-08T00:53:00.757Z,27.61
2023-02-08T00:54:32.042Z,31.13
2023-02-08T00:56:03.269Z,32.09
2023-02-08T00:57:34.823Z,31.30
2023-02-08T00:59:06.160Z,31.46
2023-02-08T01:00:37.998Z,34.09
2023-02-08T01:02:09.765Z,32.64
2023-02-08T01:03:41.145Z,29.89
2023-02-08T01:05:12.643Z,30.75
2023-02-08T01:06:44.159Z,32.33
2023-02-08T01:08:15.824Z,32.48
2023-02-08T01:09:57.163Z,32.11
2023-02-08T01:11:28.364Z,32.90
2023-02-08T01:12:59.762Z,31.80
2023-02-08T01:14:31.143Z,31.77
2023-02-08T01:16:03.117Z,33.95
2023-02-08T01:17:35.006Z,32.06
2023-02-08T01:19:06.258Z,33.06
2023-02-08T01:20:37.946Z,33.37
2023-02-08T01:22:09.436Z,35.73
2023-02-08T01:24:02.135Z,34.02
2023-02-08T01:25:33.424Z,34.12
2023-02-08T01:27:04.979Z,34.15
2023-02-08T01:28:36.422Z,30.28
2023-02-08T01:30:07.630Z,28.62
2023-02-08T01:31:38.834Z,26.13
2023-02-08T01:33:10.739Z,25.20
2023-02-08T01:34:44.032Z,25.47
2023-02-08T01:36:15.739Z,22.72
2023-02-08T01:37:47.391Z,23.37
2023-02-08T01:39:18.682Z,23.56
2023-02-08T01:40:50.155Z,22.18
2023-02-08T01:42:21.552Z,21.62
2023-02-08T01:43:52.951Z,21.88
2023-02-08T01:45:24.361Z,22.10
2023-02-08T01:46:55.842Z,22.75
2023-02-08T01:48:27.173Z,22.85
2023-02-08T01:49:58.979Z,22.20
2023-02-08T01:51:30.549Z,22.04
2023-02-08T01:53:02.004Z,23.28
2023-02-08T01:54:38.476Z,22.75
2023-02-08T01:56:10.164Z,23.05
2023-02-08T01:57:41.535Z,24.47
2023-02-08T01:59:12.795Z,24.13
2023-02-08T02:00:44.281Z,21.65
2023-02-08T02:02:15.989Z,22.11
2023-02-08T02:03:47.387Z,22.14
2023-02-08T02:05:18.577Z,20.98
2023-02-08T02:06:49.784Z,21.08
2023-02-08T02:08:21.273Z,20.95
2023-02-08T02:09:52.571Z,21.19
2023-02-08T02:11:24.025Z,21.95
2023-02-08T02:12:55.400Z,21.21
2023-02-08T02:14:26.811Z,19.20
2023-02-08T02:15:58.699Z,19.19
2023-02-08T02:17:29.997Z,18.65
2023-02-08T02:19:01.581Z,17.90
2023-02-08T02:20:33.775Z,15.40
2023-02-08T02:22:05.085Z,17.05
2023-02-08T02:23:36.601Z,19.10
2023-02-08T02:25:08.078Z,18.87
2023-02-08T02:26:39.379Z,18.67
2023-02-08T02:28:10.726Z,18.85
2023-02-08T02:29:42.049Z,19.86
2023-02-08T02:31:13.394Z,19.08
2023-02-08T02:32:44.717Z,20.54
2023-02-08T02:34:16.366Z,20.18
2023-02-08T02:35:52.993Z,24.63
2023-02-08T02:37:24.170Z,20.29
2023-02-08T02:38:55.490Z,20.73
2023-02-08T02:40:27.095Z,22.21
2023-02-08T02:41:58.602Z,21.08
2023-02-08T02:43:30.071Z,22.82
2023-02-08T02:45:01.719Z,22.05
2023-02-08T02:46:33.276Z,21.49
2023-02-08T02:48:05.198Z,20.47
2023-02-08T02:49:36.671Z,19.43
2023-02-08T02:51:08.112Z,17.97
2023-02-08T02:52:39.730Z,18.92
2023-02-08T02:54:11.195Z,20.13
2023-02-08T02:55:42.658Z,16.68
2023-02-08T02:57:14.210Z,18.39
2023-02-08T02:58:45.663Z,17.97
2023-02-08T03:00:17.137Z,20.31
2023-02-08T03:01:48.819Z,18.94
2023-02-08T03:03:20.147Z,17.57
2023-02-08T03:04:52.031Z,22.48
2023-02-08T03:06:23.547Z,19.58
2023-02-08T03:07:55.155Z,19.54
2023-02-08T03:09:26.703Z,20.00
2023-02-08T03:10:58.521Z,21.01
2023-02-08T03:12:29.782Z,18.67
2023-02-08T03:14:01.096Z,19.94
2023-02-08T03:15:32.475Z,19.12
2023-02-08T03:17:05.143Z,21.20
2023-02-08T03:18:36.633Z,20.18
2023-02-08T03:20:07.956Z,21.28
2023-02-08T03:21:39.337Z,21.41
2023-02-08T03:23:10.714Z,19.05
2023-02-08T03:24:43.070Z,20.40
2023-02-08T03:26:14.403Z,19.65
2023-02-08T03:27:45.632Z,19.87
2023-02-08T03:29:18.189Z,19.41
2023-02-08T03:31:26.641Z,19.06
2023-02-08T03:32:58.247Z,18.61
2023-02-08T03:34:41.708Z,18.13
2023-02-08T03:36:18.980Z,19.50
2023-02-08T03:38:01.971Z,19.44
2023-02-08T03:39:43.273Z,17.42
2023-02-08T03:41:25.562Z,16.73
2023-02-08T03:43:19.429Z,17.09
2023-02-08T03:45:00.895Z,16.09
2023-02-08T03:46:32.093Z,16.64
2023-02-08T03:48:36.989Z,16.62
2023-02-08T03:50:24.731Z,17.10
2023-02-08T03:51:56.435Z,16.82
2023-02-08T03:53:28.002Z,15.98
2023-02-08T03:55:19.370Z,16.07
2023-02-08T03:56:50.658Z,15.77
2023-02-08T03:59:03.481Z,16.43
2023-02-08T04:00:44.837Z,16.46
2023-02-08T04:02:31.351Z,17.26
2023-02-08T04:04:25.023Z,16.91
2023-02-08T04:06:06.602Z,17.73
2023-02-08T04:07:37.954Z,19.12
2023-02-08T04:09:09.805Z,17.13
2023-02-08T04:10:41.945Z,18.95
2023-02-08T04:12:23.647Z,19.72
2023-02-08T04:16:29.656Z,17.08
2023-02-08T04:18:01.591Z,18.23
2023-02-08T04:19:33.124Z,19.54
2023-02-08T04:21:04.460Z,17.80
2023-02-08T04:22:36.149Z,16.57
2023-02-08T04:24:28.032Z,17.24
2023-02-08T04:25:59.610Z,16.11
2023-02-08T04:27:31.748Z,17.01
2023-02-08T04:29:03.842Z,16.05
2023-02-08T04:30:40.995Z,17.30
2023-02-08T04:32:13.009Z,17.24
2023-02-08T04:33:44.560Z,19.61
2023-02-08T04:35:30.938Z,18.14
2023-02-08T04:37:29.156Z,18.47
2023-02-08T04:39:09.574Z,18.50
2023-02-08T04:41:07.157Z,17.10
2023-02-08T04:42:49.722Z,18.45
2023-02-08T04:44:30.914Z,18.23
2023-02-08T04:46:02.315Z,17.99
2023-02-08T04:47:33.580Z,17.09
2023-02-08T04:49:05.227Z,19.34
2023-02-08T04:50:36.450Z,19.35
2023-02-08T04:52:28.346Z,18.30
2023-02-08T04:54:19.060Z,18.05
2023-02-08T04:55:50.692Z,16.58
2023-02-08T04:57:22.209Z,17.75
2023-02-08T04:58:53.973Z,19.42
2023-02-08T05:00:35.467Z,17.54
2023-02-08T05:02:06.703Z,17.74
2023-02-08T05:04:10.494Z,19.12
2023-02-08T05:05:41.808Z,19.37
2023-02-08T05:07:13.058Z,18.79
2023-02-08T05:08:44.975Z,18.06
2023-02-08T05:10:16.661Z,17.25
2023-02-08T05:11:48.192Z,17.66
2023-02-08T05:13:19.487Z,17.34
2023-02-08T05:14:50.874Z,16.78
2023-02-08T05:16:22.165Z,17.24
2023-02-08T05:17:53.443Z,17.37
2023-02-08T05:19:24.744Z,18.11
2023-02-08T05:20:56.155Z,17.97
2023-02-08T05:22:27.435Z,18.69
2023-02-08T05:23:59.440Z,19.16
2023-02-08T05:25:30.960Z,17.49
2023-02-08T05:27:02.857Z,18.72
2023-02-08T05:28:34.291Z,19.90
2023-02-08T05:30:05.604Z,17.81
2023-02-08T05:31:38.331Z,19.07
2023-02-08T05:33:09.792Z,18.21
2023-02-08T05:34:41.220Z,18.49
2023-02-08T05:36:12.760Z,17.83
2023-02-08T05:37:49.496Z,17.20
2023-02-08T05:39:21.057Z,17.91
2023-02-08T05:40:52.590Z,16.78
2023-02-08T05:42:24.016Z,19.19
2023-02-08T05:43:55.666Z,20.22
2023-02-08T05:45:42.347Z,16.84
2023-02-08T05:47:18.851Z,16.39
2023-02-08T05:48:50.308Z,14.84
2023-02-08T05:50:21.920Z,16.92
2023-02-08T05:51:53.701Z,15.20
2023-02-08T05:53:31.359Z,17.57
2023-02-08T05:55:02.749Z,16.32
2023-02-08T05:56:34.139Z,14.69
2023-02-08T05:58:31.240Z,15.83
2023-02-08T06:00:03.005Z,14.94
2023-02-08T06:01:34.288Z,15.61
2023-02-08T06:03:05.582Z,16.13
2023-02-08T06:04:39.019Z,15.35
2023-02-08T06:06:10.457Z,14.43
2023-02-08T06:07:41.756Z,15.93
2023-02-08T06:09:13.059Z,15.34
2023-02-08T06:10:44.278Z,16.04
2023-02-08T06:12:16.916Z,17.65
2023-02-08T06:13:48.663Z,15.02
2023-02-08T06:15:20.065Z,14.80
2023-02-08T06:16:51.367Z,16.02
2023-02-08T06:18:22.724Z,16.12
2023-02-08T06:19:53.926Z,18.87
2023-02-08T06:21:25.397Z,15.12
2023-02-08T06:22:56.773Z,15.53
2023-02-08T06:24:28.122Z,17.14
2023-02-08T06:25:59.640Z,17.82
2023-02-08T06:27:31.559Z,17.53
2023-02-08T06:29:02.852Z,16.44
2023-02-08T06:30:34.676Z,16.24
2023-02-08T06:32:06.486Z,18.10
2023-02-08T06:33:38.482Z,15.20
2023-02-08T06:35:10.281Z,15.56
2023-02-08T06:36:41.755Z,17.05
2023-02-08T06:38:13.104Z,16.60
2023-02-08T06:39:44.416Z,18.27
2023-02-08T06:41:16.977Z,18.83
2023-02-08T06:42:48.463Z,18.06
2023-02-08T06:44:20.047Z,19.26
2023-02-08T06:45:51.368Z,17.56
2023-02-08T06:47:22.937Z,17.43
2023-02-08T06:48:54.412Z,19.29
2023-02-08T06:50:26.084Z,18.67
2023-02-08T06:51:57.748Z,18.05
2023-02-08T06:53:29.319Z,17.67
2023-02-08T06:55:01.079Z,20.17
2023-02-08T06:56:37.358Z,18.31
2023-02-08T06:58:08.707Z,19.66
2023-02-08T06:59:40.320Z,18.85
2023-02-08T07:01:11.611Z,18.10
2023-02-08T07:02:42.981Z,20.92
2023-02-08T07:04:14.684Z,18.24
2023-02-08T07:06:03.488Z,19.56
2023-02-08T07:07:35.353Z,18.66
2023-02-08T07:09:06.890Z,21.04
2023-02-08T07:10:38.794Z,19.53
2023-02-08T07:12:10.271Z,18.23
2023-02-08T07:13:41.939Z,19.22
2023-02-08T07:15:13.225Z,17.78
2023-02-08T07:16:45.058Z,17.83
2023-02-08T07:18:16.923Z,19.23
2023-02-08T07:19:48.234Z,18.21
2023-02-08T07:21:19.709Z,17.22
2023-02-08T07:22:51.387Z,19.00
2023-02-08T07:24:22.775Z,16.29
2023-02-08T07:25:54.480Z,15.78
2023-02-08T07:27:26.137Z,15.40
2023-02-08T07:28:57.615Z,16.44
2023-02-08T07:30:34.339Z,15.35
2023-02-08T07:32:06.006Z,14.74
2023-02-08T07:33:37.262Z,14.94
2023-02-08T07:35:08.878Z,14.66
2023-02-08T07:36:40.294Z,16.73
2023-02-08T07:38:11.700Z,16.31
2023-02-08T07:39:43.290Z,19.11
2023-02-08T07:41:14.660Z,19.09
2023-02-08T07:42:46.311Z,19.03
2023-02-08T07:44:17.572Z,19.63
2023-02-08T07:45:49.547Z,19.13
2023-02-08T07:47:20.835Z,20.80
2023-02-08T07:48:58.247Z,21.90
2023-02-08T07:50:34.631Z,30.59
2023-02-08T07:52:06.164Z,24.48
2023-02-08T07:53:42.474Z,22.78
2023-02-08T07:55:13.881Z,21.28
2023-02-08T07:56:46.309Z,20.84
2023-02-08T07:58:17.782Z,21.06
2023-02-08T07:59:49.032Z,20.83
2023-02-08T08:01:22.548Z,20.28
2023-02-08T08:02:54.275Z,20.68
2023-02-08T08:04:30.541Z,19.53
2023-02-08T08:06:02.026Z,17.81
2023-02-08T08:07:33.538Z,18.23
2023-02-08T08:09:04.947Z,14.77
2023-02-08T08:10:36.205Z,15.04
2023-02-08T08:12:23.420Z,13.99
2023-02-08T08:13:54.735Z,15.75
2023-02-08T08:15:25.964Z,16.42
2023-02-08T08:16:57.333Z,14.22
2023-02-08T08:18:28.697Z,16.95
2023-02-08T08:19:59.988Z,17.74
2023-02-08T08:21:31.156Z,15.25
2023-02-08T08:23:07.433Z,16.69
2023-02-08T08:24:38.701Z,15.88
2023-02-08T08:26:09.864Z,16.92
2023-02-08T08:27:41.309Z,15.81
2023-02-08T08:29:13.650Z,16.71
2023-02-08T08:30:45.125Z,18.09
2023-02-08T08:32:16.472Z,16.68
2023-02-08T08:33:47.939Z,17.36
2023-02-08T08:35:19.658Z,18.00
2023-02-08T08:36:51.228Z,17.93
2023-02-08T08:38:22.608Z,17.75
2023-02-08T08:39:59.023Z,19.87
2023-02-08T08:41:30.209Z,18.88
2023-02-08T08:43:01.868Z,16.14
2023-02-08T08:44:33.301Z,19.30
2023-02-08T08:46:04.731Z,18.27
2023-02-08T08:47:36.011Z,17.04
2023-02-08T08:49:22.390Z,17.44
2023-02-08T08:51:03.560Z,17.43
2023-02-08T08:52:34.977Z,18.94
2023-02-08T08:54:06.378Z,16.02
2023-02-08T08:55:37.634Z,19.60
2023-02-08T08:57:08.831Z,18.34
2023-02-08T08:58:45.150Z,16.79
2023-02-08T09:00:16.756Z,16.93
2023-02-08T09:01:48.076Z,15.97
2023-02-08T09:03:19.822Z,17.44
2023-02-08T09:04:51.149Z,17.36
2023-02-08T09:06:22.333Z,15.03
2023-02-08T09:07:53.561Z,16.29
2023-02-08T09:09:24.848Z,13.58
2023-02-08T09:10:56.470Z,16.49
2023-02-08T09:12:27.755Z,14.35
2023-02-08T09:13:59.181Z,14.69
2023-02-08T09:15:30.624Z,14.39
2023-02-08T09:17:01.809Z,15.06
2023-02-08T09:18:33.280Z,16.07
2023-02-08T09:20:04.980Z,14.80
2023-02-08T09:21:36.481Z,13.68
2023-02-08T09:23:07.647Z,16.42
2023-02-08T09:24:38.969Z,13.99
2023-02-08T09:26:10.450Z,15.51
2023-02-08T09:27:41.878Z,14.86
2023-02-08T09:29:13.165Z,15.15
2023-02-08T09:30:44.792Z,14.72
2023-02-08T09:32:16.108Z,17.58
2023-02-08T09:33:47.411Z,19.74
2023-02-08T09:35:19.226Z,19.20
2023-02-08T09:36:50.643Z,14.94
2023-02-08T09:38:21.986Z,14.04
2023-02-08T09:39:53.157Z,15.52
2023-02-08T09:41:24.467Z,13.34
2023-02-08T09:42:55.785Z,14.79
2023-02-08T09:44:27.018Z,14.81
2023-02-08T09:46:00.410Z,12.85
2023-02-08T09:47:31.812Z,12.01
2023-02-08T09:49:03.126Z,11.72
2023-02-08T09:50:34.449Z,12.77
2023-02-08T09:52:05.640Z,13.16
2023-02-08T09:53:36.981Z,14.17
2023-02-08T09:55:08.283Z,11.13
2023-02-08T09:56:39.524Z,11.01
2023-02-08T09:58:11.248Z,11.38
2023-02-08T09:59:42.703Z,9.82
2023-02-08T10:01:14.050Z,11.51
2023-02-08T10:02:45.598Z,9.05
2023-02-08T10:04:17.232Z,10.95
2023-02-08T10:05:49.163Z,11.22
2023-02-08T10:07:20.850Z,12.56
2023-02-08T10:08:52.319Z,8.40
2023-02-08T10:10:23.821Z,9.70
2023-02-08T10:11:57.395Z,9.56
2023-02-08T10:13:40.574Z,11.48
2023-02-08T10:15:12.778Z,9.41
2023-02-08T10:16:44.241Z,8.96
2023-02-08T10:18:15.785Z,9.79
2023-02-08T10:19:47.124Z,9.50
2023-02-08T10:21:18.632Z,8.36
2023-02-08T10:22:49.956Z,9.77
2023-02-08T10:24:21.670Z,8.61
2023-02-08T10:25:53.197Z,7.74
2023-02-08T10:27:24.752Z,8.21
2023-02-08T10:28:56.878Z,7.39
2023-02-08T10:30:28.270Z,7.55
2023-02-08T10:31:59.797Z,7.06
2023-02-08T10:33:31.187Z,7.46
2023-02-08T10:35:02.445Z,6.66
2023-02-08T10:36:33.685Z,6.40
2023-02-08T10:38:05.190Z,6.98
2023-02-08T10:39:36.559Z,6.28
2023-02-08T10:41:08.309Z,6.95
2023-02-08T10:42:39.913Z,6.86
2023-02-08T10:44:11.157Z,7.01
2023-02-08T10:45:42.857Z,7.80
2023-02-08T10:47:14.260Z,6.35
2023-02-08T10:48:45.471Z,8.27
2023-02-08T10:50:16.894Z,7.43
2023-02-08T10:51:48.341Z,7.23
2023-02-08T10:53:19.837Z,5.17
2023-02-08T10:54:51.144Z,6.21
2023-02-08T10:56:22.412Z,5.97
2023-02-08T10:57:53.799Z,5.87
2023-02-08T10:59:26.280Z,5.44
2023-02-08T11:00:57.781Z,5.85
2023-02-08T11:02:29.302Z,6.57
2023-02-08T11:04:00.891Z,5.46
2023-02-08T11:05:32.292Z,6.59
2023-02-08T11:07:03.508Z,5.78
2023-02-08T11:08:35.051Z,7.35
2023-02-08T11:10:11.406Z,5.47
2023-02-08T11:11:42.954Z,6.00
2023-02-08T11:13:39.742Z,6.23
2023-02-08T11:15:11.018Z,5.66
2023-02-08T11:16:42.781Z,8.39
2023-02-08T11:18:14.042Z,7.77
2023-02-08T11:19:45.634Z,6.57
2023-02-08T11:21:16.985Z,8.18
2023-02-08T11:22:48.276Z,7.86
2023-02-08T11:24:20.873Z,8.46
2023-02-08T11:25:52.146Z,7.67
2023-02-08T11:27:23.448Z,6.64
2023-02-08T11:28:54.895Z,6.70
2023-02-08T11:30:26.320Z,7.79
2023-02-08T11:31:57.944Z,6.30
2023-02-08T11:33:29.270Z,6.47
2023-02-08T11:35:00.868Z,5.97
2023-02-08T11:36:32.708Z,6.92
2023-02-08T11:38:04.311Z,7.26
2023-02-08T11:39:35.982Z,5.80
2023-02-08T11:41:07.382Z,6.08
2023-02-08T11:42:38.688Z,6.09
2023-02-08T11:44:10.308Z,5.40
2023-02-08T11:45:41.825Z,6.00
2023-02-08T11:47:13.321Z,5.79
2023-02-08T11:48:50.046Z,5.06
2023-02-08T11:50:21.340Z,5.54
2023-02-08T11:51:52.882Z,6.56
2023-02-08T11:53:25.186Z,4.72
2023-02-08T11:54:56.631Z,7.46
2023-02-08T11:56:27.986Z,7.01
2023-02-08T11:58:06.894Z,7.30
2023-02-08T11:59:38.167Z,6.90
2023-02-08T12:01:14.714Z,6.05
2023-02-08T12:02:46.097Z,5.76
2023-02-08T12:04:17.419Z,6.53
2023-02-08T12:05:48.728Z,5.19
2023-02-08T12:07:20.296Z,7.02
2023-02-08T12:08:52.037Z,6.21
2023-02-08T12:10:23.477Z,6.20
2023-02-08T12:11:54.831Z,5.23
2023-02-08T12:13:26.167Z,5.39
2023-02-08T12:14:57.510Z,5.21
2023-02-08T12:16:30.973Z,5.07
2023-02-08T12:18:03.903Z,7.12
2023-02-08T12:19:35.183Z,7.43
2023-02-08T12:21:06.585Z,8.22
2023-02-08T12:22:37.928Z,6.55
2023-02-08T12:24:09.551Z,5.71
2023-02-08T12:25:41.178Z,5.28
2023-02-08T12:27:12.763Z,5.93
2023-02-08T12:28:44.255Z,5.40
2023-02-08T12:30:15.696Z,4.86
2023-02-08T12:31:47.119Z,4.64
2023-02-08T12:33:18.531Z,4.75
2023-02-08T12:34:49.928Z,5.88
2023-02-08T12:36:21.612Z,4.96
2023-02-08T12:37:53.058Z,5.86
2023-02-08T12:39:26.169Z,5.99
2023-02-08T12:40:57.790Z,5.98
2023-02-08T12:42:29.301Z,4.92
2023-02-08T12:44:00.881Z,4.69
2023-02-08T12:45:32.214Z,4.49
2023-02-08T12:47:03.541Z,6.14
2023-02-08T12:48:34.958Z,5.12
2023-02-08T12:50:06.389Z,5.23
2023-02-08T12:51:37.787Z,4.88
2023-02-08T12:53:09.103Z,4.79
2023-02-08T12:54:45.739Z,4.73
2023-02-08T12:56:17.265Z,5.77
2023-02-08T12:57:48.931Z,4.57
2023-02-08T12:59:20.354Z,4.18
2023-02-08T13:00:51.712Z,4.64
2023-02-08T13:02:23.177Z,5.91
2023-02-08T13:03:54.699Z,5.27
2023-02-08T13:05:26.921Z,4.65
2023-02-08T13:06:58.314Z,6.23
2023-02-08T13:08:29.770Z,6.60
2023-02-08T13:10:01.092Z,4.27
2023-02-08T13:11:32.373Z,4.41
2023-02-08T13:13:03.810Z,4.70
2023-02-08T13:14:35.190Z,5.83
2023-02-08T13:16:06.902Z,4.42
2023-02-08T13:17:38.196Z,5.14
2023-02-08T13:19:10.790Z,4.97
2023-02-08T13:20:46.565Z,5.02
2023-02-08T13:22:20.744Z,5.50
2023-02-08T13:23:54.827Z,6.21
2023-02-08T13:25:27.797Z,4.84
2023-02-08T13:26:59.346Z,4.75
2023-02-08T13:28:30.801Z,4.40
2023-02-08T13:30:03.425Z,4.30
2023-02-08T13:31:35.013Z,4.82
2023-02-08T13:33:08.226Z,3.84
2023-02-08T13:34:39.633Z,4.38
2023-02-08T13:36:11.445Z,5.41
2023-02-08T13:38:02.786Z,7.93
2023-02-08T13:39:34.329Z,19.17
2023-02-08T13:41:06.003Z,27.23
2023-02-08T13:44:57.914Z,4.74
2023-02-08T13:48:05.712Z,5.71
2023-02-08T13:49:39.184Z,8.89
2023-02-08T13:51:30.125Z,8.49
2023-02-08T13:53:02.271Z,6.40
2023-02-08T13:54:33.537Z,6.39
2023-02-08T13:58:11.122Z,5.68
2023-02-08T13:59:47.831Z,6.75
2023-02-08T14:01:47.880Z,10.78
2023-02-08T14:03:24.307Z,6.87
2023-02-08T14:04:55.999Z,6.99
2023-02-08T14:06:27.335Z,6.40
2023-02-08T14:07:59.007Z,4.82
2023-02-08T14:09:30.255Z,6.52
2023-02-08T14:11:23.445Z,4.78
2023-02-08T14:13:27.978Z,5.12
2023-02-08T14:15:05.507Z,6.47
2023-02-08T14:16:36.918Z,7.55
2023-02-08T14:20:32.022Z,12.09
2023-02-08T14:22:03.552Z,8.64
2023-02-08T14:23:35.006Z,6.73
2023-02-08T14:25:06.312Z,6.51
2023-02-08T14:27:16.140Z,7.43
2023-02-08T14:28:48.208Z,6.66
2023-02-08T14:30:19.784Z,9.48
2023-02-08T14:31:51.351Z,7.11
2023-02-08T14:33:22.673Z,9.38
2023-02-08T14:35:35.556Z,15.14
2023-02-08T14:37:07.146Z,14.62
2023-02-08T14:38:38.916Z,6.89
2023-02-08T14:40:10.816Z,9.18
2023-02-08T14:41:42.927Z,9.80
2023-02-08T14:43:14.631Z,7.46
2023-02-08T14:44:46.013Z,7.27
2023-02-08T14:46:17.427Z,6.51
2023-02-08T14:47:48.726Z,7.77
2023-02-08T14:49:20.133Z,7.41
2023-02-08T14:50:51.429Z,8.78
2023-02-08T14:52:22.901Z,8.31
2023-02-08T14:53:54.198Z,8.46
2023-02-08T14:55:25.453Z,8.28
2023-02-08T14:56:56.770Z,8.03
2023-02-08T14:58:28.510Z,9.98
2023-02-08T14:59:59.792Z,6.71
2023-02-08T15:01:31.217Z,6.63
2023-02-08T15:03:02.542Z,6.49
2023-02-08T15:04:34.025Z,10.96
2023-02-08T15:06:05.444Z,9.45
2023-02-08T15:07:36.715Z,8.29
2023-02-08T15:09:08.287Z,7.73
2023-02-08T15:10:39.657Z,8.08
2023-02-08T15:12:11.154Z,7.75
2023-02-08T15:13:42.609Z,8.61
2023-02-08T15:15:14.224Z,6.56
2023-02-08T15:16:45.708Z,7.95
2023-02-08T15:18:18.858Z,7.62
2023-02-08T15:19:50.364Z,7.55
2023-02-08T15:21:21.919Z,8.46
2023-02-08T15:22:53.191Z,7.36
2023-02-08T15:24:24.540Z,9.97
2023-02-08T15:25:55.926Z,9.04
2023-02-08T15:27:27.263Z,8.04
2023-02-08T15:29:42.865Z,9.07
2023-02-08T15:31:15.889Z,10.68
2023-02-08T15:32:47.282Z,9.56
2023-02-08T15:34:18.591Z,9.97
2023-02-08T15:35:50.056Z,11.33
2023-02-08T15:37:21.531Z,9.69
2023-02-08T15:38:52.870Z,10.08
2023-02-08T15:40:24.210Z,8.10
2023-02-08T15:41:55.732Z,9.41
2023-02-08T15:43:32.028Z,8.59
2023-02-08T15:45:03.372Z,9.43
2023-02-08T15:46:34.761Z,10.28
2023-02-08T15:48:06.050Z,9.95
2023-02-08T15:49:37.515Z,8.79
2023-02-08T15:51:13.755Z,8.85
2023-02-08T15:52:45.185Z,8.62
2023-02-08T15:54:16.482Z,8.64
2023-02-08T15:55:48.089Z,8.96
2023-02-08T15:57:19.755Z,8.58
2023-02-08T15:58:51.078Z,8.22
2023-02-08T16:00:22.425Z,7.25
2023-02-08T16:02:03.713Z,6.25
2023-02-08T16:03:35.096Z,10.21
2023-02-08T16:05:06.414Z,8.81
2023-02-08T16:06:37.753Z,8.19
2023-02-08T16:08:09.107Z,7.26
2023-02-08T16:09:40.470Z,7.52
2023-02-08T16:11:16.792Z,7.11
2023-02-08T16:12:48.029Z,5.93
2023-02-08T16:14:19.411Z,7.68
2023-02-08T16:16:07.121Z,8.40
2023-02-08T16:17:39.786Z,7.49
2023-02-08T16:19:17.282Z,6.71
2023-02-08T16:20:48.681Z,7.08
2023-02-08T16:22:20.597Z,7.09
2023-02-08T16:23:52.210Z,7.08
2023-02-08T16:25:24.006Z,7.98
2023-02-08T16:26:55.365Z,6.42
2023-02-08T16:28:26.706Z,8.67
2023-02-08T16:30:08.479Z,7.03
2023-02-08T16:31:40.842Z,9.03
2023-02-08T16:33:17.534Z,8.20
2023-02-08T16:35:00.133Z,7.42
2023-02-08T16:36:32.705Z,8.92
2023-02-08T16:38:04.296Z,9.92
2023-02-08T16:39:36.507Z,11.64
2023-02-08T16:41:12.803Z,10.45
2023-02-08T16:43:16.910Z,7.48
2023-02-08T16:44:48.669Z,8.55
2023-02-08T16:46:30.375Z,9.32
2023-02-08T16:48:13.479Z,8.16
2023-02-08T16:49:50.159Z,8.85
2023-02-08T16:51:37.216Z,9.78
2023-02-08T16:53:09.333Z,7.87
2023-02-08T16:54:40.949Z,7.97
2023-02-08T16:56:40.679Z,7.82
2023-02-08T16:58:12.445Z,7.06
2023-02-08T17:00:00.637Z,10.20
2023-02-08T17:01:32.742Z,9.76
2023-02-08T17:03:10.630Z,8.96
2023-02-08T17:04:43.656Z,11.18
2023-02-08T17:06:16.103Z,7.15
2023-02-08T17:07:47.976Z,8.20
2023-02-08T17:09:52.261Z,8.80
2023-02-08T17:11:24.615Z,7.71
2023-02-08T17:13:06.840Z,8.07
2023-02-08T17:14:49.158Z,8.11
2023-02-08T17:16:20.398Z,9.57
2023-02-08T17:18:13.297Z,8.77
2023-02-08T17:19:45.107Z,8.14
2023-02-08T17:21:16.929Z,10.44
2023-02-08T17:22:48.938Z,9.44
2023-02-08T17:24:26.195Z,8.97
2023-02-08T17:25:58.807Z,8.52
2023-02-08T17:27:30.200Z,8.41
2023-02-08T17:29:01.837Z,15.95
2023-02-08T17:30:40.485Z,13.64
2023-02-08T17:32:12.227Z,12.51
2023-02-08T17:33:54.779Z,16.34
2023-02-08T17:35:46.457Z,19.24
2023-02-08T17:37:18.405Z,17.47
2023-02-08T17:38:50.294Z,17.46
2023-02-08T17:40:22.050Z,14.01
2023-02-08T17:41:54.580Z,9.98
2023-02-08T17:43:26.394Z,15.12
2023-02-08T17:44:58.486Z,14.92
2023-02-08T17:46:30.624Z,13.35
2023-02-08T17:48:02.150Z,11.63
2023-02-08T17:49:44.072Z,12.70
2023-02-08T17:51:25.320Z,16.80
2023-02-08T17:52:56.982Z,13.12
2023-02-08T17:54:28.669Z,9.93
2023-02-08T17:56:36.334Z,8.75
2023-02-08T17:58:38.332Z,9.53
2023-02-08T18:00:37.649Z,11.69
2023-02-08T18:02:24.392Z,10.45
2023-02-08T18:04:01.364Z,10.41
2023-02-08T18:05:33.413Z,9.50
2023-02-08T18:07:04.622Z,11.29
2023-02-08T18:09:07.657Z,21.05
2023-02-08T18:10:45.842Z,32.79
2023-02-08T18:12:28.933Z,33.68
2023-02-08T18:14:00.396Z,32.03
2023-02-08T18:15:32.040Z,29.30
2023-02-08T18:17:03.621Z,33.56
2023-02-08T18:18:35.445Z,28.91
2023-02-08T18:20:06.821Z,23.02
2023-02-08T18:21:43.107Z,21.27
2023-02-08T18:23:35.125Z,18.90
2023-02-08T18:25:30.477Z,18.44
2023-02-08T18:27:01.898Z,16.81
2023-02-08T18:28:49.169Z,21.00
2023-02-08T18:30:20.988Z,34.42
2023-02-08T18:31:58.861Z,47.70
2023-02-08T18:33:30.685Z,36.61
2023-02-08T18:35:04.651Z,23.35
2023-02-08T18:36:39.162Z,23.55
2023-02-08T18:38:10.772Z,19.20
2023-02-08T18:40:03.843Z,19.62
2023-02-08T18:41:36.878Z,23.87
2023-02-08T18:43:28.416Z,19.51
2023-02-08T18:45:34.254Z,18.45
2023-02-08T18:47:16.108Z,18.58
2023-02-08T18:49:11.535Z,16.27
2023-02-08T18:50:48.201Z,17.47
2023-02-08T18:53:01.018Z,15.39
2023-02-08T18:54:38.375Z,14.89
2023-02-08T18:56:09.600Z,16.24
2023-02-08T18:57:51.255Z,14.81
2023-02-08T18:59:40.867Z,15.25
2023-02-08T19:01:17.620Z,14.95
2023-02-08T19:02:55.711Z,17.30
2023-02-08T19:04:32.638Z,14.54
2023-02-08T19:06:04.281Z,15.61
2023-02-08T19:07:35.932Z,16.25
2023-02-08T19:09:07.433Z,16.86
2023-02-08T19:10:38.869Z,20.45
2023-02-08T19:12:10.872Z,17.52
2023-02-08T19:13:49.397Z,16.52
2023-02-08T19:15:21.256Z,31.73
2023-02-08T19:16:54.078Z,26.61
2023-02-08T19:19:16.092Z,23.41
2023-02-08T19:20:53.998Z,26.85
2023-02-08T19:22:25.853Z,24.61
2023-02-08T19:23:57.541Z,21.52
2023-02-08T19:25:29.103Z,24.53
2023-02-08T19:27:33.753Z,19.93
2023-02-08T19:29:16.495Z,22.90
2023-02-08T19:30:48.296Z,20.64
2023-02-08T19:32:20.623Z,18.12
2023-02-08T19:34:17.209Z,14.57
2023-02-08T19:35:48.883Z,13.51
2023-02-08T19:37:20.778Z,12.37
2023-02-08T19:38:52.670Z,14.68
2023-02-08T19:40:44.348Z,16.25
2023-02-08T19:42:15.875Z,25.63
2023-02-08T19:43:59.066Z,34.55
2023-02-08T19:45:30.929Z,22.84
2023-02-08T19:47:06.103Z,14.33
2023-02-08T19:48:38.582Z,16.18
2023-02-08T19:50:32.450Z,12.46
2023-02-08T19:52:04.169Z,10.01
2023-02-08T19:53:36.081Z,9.75
2023-02-08T19:55:34.820Z,9.41
2023-02-08T19:57:13.898Z,9.44
2023-02-08T19:58:45.381Z,10.10
2023-02-08T20:00:23.323Z,11.43
2023-02-08T20:01:55.832Z,9.96
2023-02-08T20:03:28.353Z,10.43
2023-02-08T20:05:00.042Z,12.09
2023-02-08T20:06:43.719Z,13.01
2023-02-08T20:08:21.047Z,13.54
2023-02-08T20:09:58.303Z,13.41
2023-02-08T20:11:51.251Z,15.92
2023-02-08T20:13:35.726Z,14.66
2023-02-08T20:15:12.775Z,12.68
2023-02-08T20:16:54.816Z,11.26
2023-02-08T20:18:26.687Z,11.00
2023-02-08T20:19:58.470Z,11.90
2023-02-08T20:21:30.034Z,13.19
2023-02-08T20:23:02.941Z,13.24
2023-02-08T20:24:35.791Z,10.51
2023-02-08T20:26:07.358Z,11.73
2023-02-08T20:28:16.529Z,10.82
2023-02-08T20:29:47.938Z,10.31
2023-02-08T20:31:45.361Z,10.43
2023-02-08T20:33:17.664Z,11.35
2023-02-08T20:34:59.148Z,9.24
2023-02-08T20:36:31.636Z,10.61
2023-02-08T20:38:08.124Z,10.46
2023-02-08T20:40:13.949Z,10.77
2023-02-08T20:41:51.413Z,9.60